createdAt,value
2018-07-11T00:03:03.737Z,58.20
2018-07-11T00:08:06.891Z,58.20
2018-07-11T00:13:10.029Z,58.40
2018-07-11T00:18:13.158Z,58.40
2018-07-11T00:23:16.301Z,58.40
2018-07-11T00:28:19.720Z,58.40
2018-07-11T00:33:22.856Z,58.20
2018-07-11T00:38:25.973Z,58.20
2018-07-11T00:43:30.940Z,58.20
2018-07-11T00:48:34.711Z,58.40
2018-07-11T00:53:37.793Z,58.50
2018-07-11T00:58:46.688Z,58.50
2018-07-11T01:03:50.312Z,58.70
2018-07-11T01:13:56.756Z,58.70
2018-07-11T01:19:02.103Z,58.70
2018-07-11T01:24:05.205Z,58.80
2018-07-11T01:29:08.992Z,58.80
2018-07-11T01:34:12.091Z,58.60
2018-07-11T01:39:15.199Z,58.90
2018-07-11T01:44:18.317Z,58.70
2018-07-11T01:49:21.454Z,59.00
2018-07-11T01:54:24.675Z,58.80
2018-07-11T01:59:30.025Z,58.60
2018-07-11T02:04:34.588Z,58.60
2018-07-11T02:09:37.853Z,58.90
2018-07-11T02:14:40.982Z,58.80
2018-07-11T02:24:47.209Z,59.00
2018-07-11T02:29:50.335Z,58.90
2018-07-11T02:34:53.480Z,59.20
2018-07-11T02:39:56.706Z,59.20
2018-07-11T02:44:59.930Z,59.60
2018-07-11T02:50:03.065Z,59.70
2018-07-11T02:55:06.379Z,59.70
2018-07-11T03:00:09.500Z,59.60
2018-07-11T03:05:12.630Z,59.80
2018-07-11T03:10:15.754Z,59.70
2018-07-11T03:15:18.879Z,59.70
2018-07-11T03:25:24.895Z,60.20
2018-07-11T03:30:28.018Z,60.50
2018-07-11T03:35:31.196Z,60.20
2018-07-11T03:40:34.329Z,60.50
2018-07-11T03:45:37.462Z,60.70
2018-07-11T03:50:40.564Z,61.00
2018-07-11T03:55:43.677Z,60.80
2018-07-11T04:00:46.784Z,61.10
2018-07-11T04:05:50.405Z,61.20
2018-07-11T04:10:53.526Z,61.20
2018-07-11T04:15:56.640Z,61.50
2018-07-11T04:21:01.730Z,62.00
2018-07-11T04:26:04.846Z,61.90
2018-07-11T04:31:07.973Z,62.70
2018-07-11T04:36:11.080Z,62.60
2018-07-11T04:41:14.184Z,63.00
2018-07-11T04:46:17.497Z,62.90
2018-07-11T04:51:20.620Z,62.90
2018-07-11T04:56:23.928Z,63.60
2018-07-11T05:01:27.066Z,63.40
2018-07-11T05:06:30.168Z,63.20
2018-07-11T05:11:33.266Z,63.40
2018-07-11T05:16:36.392Z,63.00
2018-07-11T05:21:39.517Z,62.70
2018-07-11T05:26:42.790Z,63.00
2018-07-11T05:31:45.933Z,63.20
2018-07-11T05:36:49.056Z,64.10
2018-07-11T05:41:52.155Z,64.40
2018-07-11T05:47:00.887Z,64.80
2018-07-11T05:52:04.431Z,65.20
2018-07-11T05:57:07.591Z,65.20
2018-07-11T06:02:10.713Z,65.90
2018-07-11T06:07:13.818Z,65.30
2018-07-11T06:12:16.940Z,65.90
2018-07-11T06:17:20.304Z,66.60
2018-07-11T06:22:23.444Z,65.90
2018-07-11T06:27:26.586Z,66.30
2018-07-11T06:32:29.700Z,67.10
2018-07-11T06:37:32.832Z,66.90
2018-07-11T06:42:36.015Z,67.90
2018-07-11T06:47:39.139Z,69.10
2018-07-11T06:52:42.267Z,68.90
2018-07-11T06:57:45.395Z,71.80
2018-07-11T07:02:48.526Z,72.40
2018-07-11T07:07:52.001Z,72.90
2018-07-11T07:12:55.271Z,74.40
2018-07-11T07:17:58.387Z,74.10
2018-07-11T07:23:01.528Z,73.10
2018-07-11T07:28:04.649Z,72.00
2018-07-11T07:33:07.777Z,69.80
2018-07-11T07:38:10.923Z,74.20
2018-07-11T07:48:16.986Z,76.10
2018-07-11T07:53:20.240Z,74.80
2018-07-11T07:58:23.694Z,77.00
2018-07-11T08:03:27.223Z,76.70
2018-07-11T08:08:30.360Z,75.00
2018-07-11T08:13:33.480Z,76.50
2018-07-11T08:18:36.836Z,75.00
2018-07-11T08:23:51.363Z,75.00
2018-07-11T08:31:37.965Z,74.70
2018-07-11T08:36:52.726Z,74.90
2018-07-11T08:42:36.145Z,73.50
2018-07-11T08:51:58.717Z,76.00
2018-07-11T08:57:12.160Z,74.70
2018-07-11T09:02:32.332Z,73.30
2018-07-11T09:07:46.976Z,74.10
2018-07-11T09:13:05.972Z,73.70
2018-07-11T09:20:29.540Z,75.10
2018-07-11T09:25:32.656Z,74.40
2018-07-11T09:30:35.814Z,75.70
2018-07-11T09:35:38.897Z,78.00
2018-07-11T09:40:42.035Z,78.90
2018-07-11T09:45:45.289Z,79.70
2018-07-11T09:50:48.980Z,75.80
2018-07-11T09:55:52.095Z,75.90
2018-07-11T10:06:03.644Z,78.10
2018-07-11T10:11:06.876Z,76.00
2018-07-11T10:16:10.012Z,73.20
2018-07-11T10:21:13.114Z,73.50
2018-07-11T10:26:16.245Z,72.90
2018-07-11T10:31:19.374Z,74.10
2018-07-11T10:36:22.520Z,75.40
2018-07-11T10:41:25.640Z,73.00
2018-07-11T10:46:28.816Z,73.40
2018-07-11T10:56:34.858Z,73.80
2018-07-11T11:01:38.097Z,74.80
2018-07-11T11:11:44.119Z,73.60
2018-07-11T11:16:47.360Z,73.70
2018-07-11T11:26:53.428Z,72.40
2018-07-11T11:31:56.617Z,71.20
2018-07-11T11:36:59.720Z,72.40
2018-07-11T11:42:02.939Z,72.30
2018-07-11T11:47:05.980Z,70.70
2018-07-11T11:52:09.079Z,68.90
2018-07-11T11:57:12.236Z,67.20
2018-07-11T12:02:15.377Z,66.60
2018-07-11T12:12:21.565Z,65.20
2018-07-11T12:17:24.677Z,64.90
2018-07-11T12:22:27.821Z,65.70
2018-07-11T12:27:30.953Z,64.30
2018-07-11T12:37:36.983Z,63.80
2018-07-11T12:42:40.104Z,62.90
2018-07-11T12:47:48.657Z,63.40
2018-07-11T12:52:51.892Z,64.00
2018-07-11T12:57:55.127Z,63.90
2018-07-11T13:02:58.275Z,63.60
2018-07-11T13:08:01.440Z,65.10
2018-07-11T13:13:04.825Z,63.70
2018-07-11T13:18:07.976Z,63.80
2018-07-11T13:23:11.108Z,63.30
2018-07-11T13:28:14.216Z,63.60
2018-07-11T13:33:18.182Z,62.50
2018-07-11T13:38:21.408Z,63.00
2018-07-11T13:43:24.688Z,63.30
2018-07-11T13:48:27.837Z,63.60
2018-07-11T13:53:31.024Z,64.40
2018-07-11T13:58:34.181Z,66.10
2018-07-11T14:03:37.321Z,65.60
2018-07-11T14:08:40.468Z,66.10
2018-07-11T14:13:43.664Z,66.40
2018-07-11T14:18:46.804Z,66.50
2018-07-11T14:23:49.958Z,67.00
2018-07-11T14:28:53.756Z,66.90
2018-07-11T14:33:59.539Z,66.50
2018-07-11T14:39:03.089Z,67.30
2018-07-11T14:44:06.197Z,67.90
2018-07-11T14:49:09.448Z,68.40
2018-07-11T14:54:12.887Z,68.80
2018-07-11T14:59:16.049Z,68.80
2018-07-11T15:04:19.396Z,70.30
2018-07-11T15:09:22.849Z,70.20
2018-07-11T15:14:25.672Z,70.40
2018-07-11T15:19:28.813Z,70.60
2018-07-11T15:24:32.665Z,70.80
2018-07-11T15:29:35.876Z,70.90
2018-07-11T15:34:39.226Z,70.80
2018-07-11T15:39:42.596Z,71.90
2018-07-11T15:44:45.708Z,71.50
2018-07-11T15:49:50.073Z,71.70
2018-07-11T15:54:56.377Z,72.20
2018-07-11T16:00:08.324Z,72.50
2018-07-11T16:05:15.374Z,72.70
2018-07-11T16:10:22.283Z,73.40
2018-07-11T16:15:25.412Z,73.40
2018-07-11T16:20:28.547Z,73.90
2018-07-11T16:25:31.735Z,74.60
2018-07-11T16:30:35.172Z,74.00
2018-07-11T16:35:38.423Z,74.50
2018-07-11T16:40:41.536Z,75.30
2018-07-11T16:45:44.888Z,75.40
2018-07-11T16:50:48.038Z,74.60
2018-07-11T16:55:51.465Z,75.60
2018-07-11T17:06:04.664Z,75.20
2018-07-11T17:11:18.972Z,75.50
2018-07-11T17:16:31.403Z,76.00
2018-07-11T17:21:40.085Z,75.80
2018-07-11T17:26:45.253Z,76.10
2018-07-11T17:31:49.879Z,76.00
2018-07-11T17:36:57.927Z,75.20
2018-07-11T17:42:01.055Z,74.20
2018-07-11T17:52:08.376Z,74.60
2018-07-11T17:57:20.151Z,74.30
2018-07-11T18:02:30.881Z,73.80
2018-07-11T18:07:40.579Z,73.70
2018-07-11T18:12:55.479Z,73.80
2018-07-11T18:18:09.240Z,73.70
2018-07-11T18:23:23.749Z,73.70
2018-07-11T18:28:35.100Z,73.60
2018-07-11T18:33:48.316Z,73.40
2018-07-11T18:50:43.017Z,73.10
2018-07-11T18:55:57.393Z,72.90
2018-07-11T19:01:06.693Z,72.40
2018-07-11T19:06:22.793Z,72.50
2018-07-11T19:11:29.594Z,72.60
2018-07-11T19:18:53.277Z,73.20
2018-07-11T19:24:07.240Z,72.60
2018-07-11T19:29:16.807Z,73.40
2018-07-11T19:37:06.125Z,73.50
2018-07-11T19:44:27.712Z,72.70
2018-07-11T19:50:16.763Z,72.70
2018-07-11T19:55:31.904Z,73.60
2018-07-11T20:00:35.030Z,73.00
2018-07-11T20:05:38.144Z,72.20
2018-07-11T20:10:41.240Z,71.90
2018-07-11T20:16:47.603Z,71.60
2018-07-11T20:21:50.880Z,71.90
2018-07-11T20:26:53.989Z,72.30
2018-07-11T20:31:57.100Z,71.70
2018-07-11T20:37:00.474Z,71.60
2018-07-11T20:42:03.593Z,71.80
2018-07-11T20:47:06.803Z,71.80
2018-07-11T20:52:09.973Z,71.90
2018-07-11T20:57:13.115Z,72.20
2018-07-11T21:07:36.586Z,71.60
2018-07-11T21:12:48.184Z,71.40
2018-07-11T21:19:02.214Z,71.10
2018-07-11T21:24:06.292Z,71.30
2018-07-11T21:29:09.655Z,71.00
2018-07-11T21:39:15.692Z,71.50
2018-07-11T21:44:18.811Z,71.50
2018-07-11T21:59:29.384Z,72.00
2018-07-11T22:04:32.489Z,72.40
2018-07-11T22:09:35.617Z,72.10
2018-07-11T22:14:38.788Z,71.80
2018-07-11T22:24:43.442Z,71.40
2018-07-11T22:29:45.632Z,71.40
2018-07-11T22:34:47.847Z,71.40
2018-07-11T22:39:50.832Z,71.40
2018-07-11T22:44:53.029Z,71.40
2018-07-11T22:50:02.163Z,71.40
2018-07-11T22:55:04.344Z,71.20
2018-07-11T23:00:06.564Z,71.50
2018-07-11T23:05:08.747Z,71.30
2018-07-11T23:10:10.929Z,71.30
2018-07-11T23:15:13.122Z,72.00
2018-07-11T23:20:15.318Z,71.60
2018-07-11T23:25:17.508Z,71.60
2018-07-11T23:30:19.687Z,71.00
2018-07-11T23:35:21.864Z,71.20
2018-07-11T23:40:24.060Z,71.40
2018-07-11T23:45:26.252Z,71.40
2018-07-11T23:50:28.428Z,71.20
2018-07-11T23:55:30.624Z,70.80
